sensor_id;sensor_type;location;lat;lon;timestamp;P1;durP1;ratioP1;P2;durP2;ratioP2
21804;SDS011;11064;47.102;15.452;2022-11-25T05:03:28;2.58;;;1.33;;
21804;SDS011;11064;47.102;15.452;2022-11-25T05:05:54;3.03;;;1.60;;
21804;SDS011;11064;47.102;15.452;2022-11-25T05:08:20;3.22;;;1.50;;
21804;SDS011;11064;47.102;15.452;2022-11-25T05:10:46;2.53;;;1.50;;
21804;SDS011;11064;47.102;15.452;2022-11-25T05:13:11;2.10;;;1.42;;
21804;SDS011;11064;47.102;15.452;2022-11-25T05:15:37;2.80;;;1.20;;
21804;SDS011;11064;47.102;15.452;2022-11-25T05:18:03;3.00;;;1.20;;
21804;SDS011;11064;47.102;15.452;2022-11-25T05:20:28;3.13;;;1.40;;
21804;SDS011;11064;47.102;15.452;2022-11-25T05:22:54;2.35;;;1.30;;
21804;SDS011;11064;47.102;15.452;2022-11-25T05:25:20;2.03;;;1.30;;
21804;SDS011;11064;47.102;15.452;2022-11-25T05:27:48;3.63;;;1.30;;
21804;SDS011;11064;47.102;15.452;2022-11-25T05:30:14;2.58;;;1.33;;
21804;SDS011;11064;47.102;15.452;2022-11-25T05:32:40;3.10;;;1.40;;
21804;SDS011;11064;47.102;15.452;2022-11-25T05:35:05;4.40;;;1.50;;
21804;SDS011;11064;47.102;15.452;2022-11-25T05:37:31;2.22;;;1.50;;
21804;SDS011;11064;47.102;15.452;2022-11-25T05:39:57;3.47;;;1.77;;
21804;SDS011;11064;47.102;15.452;2022-11-25T05:42:23;3.03;;;1.73;;
21804;SDS011;11064;47.102;15.452;2022-11-25T05:44:49;5.28;;;1.75;;
21804;SDS011;11064;47.102;15.452;2022-11-25T05:47:14;4.55;;;1.60;;
21804;SDS011;11064;47.102;15.452;2022-11-25T05:49:40;5.65;;;2.05;;
21804;SDS011;11064;47.102;15.452;2022-11-25T05:52:06;3.30;;;1.70;;
21804;SDS011;11064;47.102;15.452;2022-11-25T05:54:32;4.88;;;2.05;;
21804;SDS011;11064;47.102;15.452;2022-11-25T05:56:57;4.22;;;2.03;;
21804;SDS011;11064;47.102;15.452;2022-11-25T05:59:23;3.08;;;2.10;;
21804;SDS011;11064;47.102;15.452;2022-11-25T06:01:51;3.35;;;2.00;;
21804;SDS011;11064;47.102;15.452;2022-11-25T06:04:18;3.33;;;1.83;;
21804;SDS011;11064;47.102;15.452;2022-11-25T06:06:43;3.58;;;2.10;;
21804;SDS011;11064;47.102;15.452;2022-11-25T06:09:09;4.40;;;2.63;;
21804;SDS011;11064;47.102;15.452;2022-11-25T06:11:35;3.83;;;2.80;;
21804;SDS011;11064;47.102;15.452;2022-11-25T06:14:01;4.60;;;3.00;;
21804;SDS011;11064;47.102;15.452;2022-11-25T06:16:26;5.95;;;3.42;;
21804;SDS011;11064;47.102;15.452;2022-11-25T06:18:52;5.78;;;2.95;;
21804;SDS011;11064;47.102;15.452;2022-11-25T06:21:18;4.30;;;3.00;;
21804;SDS011;11064;47.102;15.452;2022-11-25T06:23:45;6.97;;;3.50;;
21804;SDS011;11064;47.102;15.452;2022-11-25T06:28:38;5.78;;;3.50;;
21804;SDS011;11064;47.102;15.452;2022-11-25T06:31:09;6.68;;;3.35;;
21804;SDS011;11064;47.102;15.452;2022-11-25T06:33:37;8.25;;;3.67;;
21804;SDS011;11064;47.102;15.452;2022-11-25T06:36:03;6.07;;;3.88;;
21804;SDS011;11064;47.102;15.452;2022-11-25T06:38:31;6.80;;;3.65;;
21804;SDS011;11064;47.102;15.452;2022-11-25T06:40:59;6.15;;;3.63;;
21804;SDS011;11064;47.102;15.452;2022-11-25T06:43:26;6.18;;;3.38;;
21804;SDS011;11064;47.102;15.452;2022-11-25T06:45:52;7.28;;;3.75;;
21804;SDS011;11064;47.102;15.452;2022-11-25T06:48:17;5.93;;;3.85;;
21804;SDS011;11064;47.102;15.452;2022-11-25T06:50:43;5.45;;;3.80;;
21804;SDS011;11064;47.102;15.452;2022-11-25T06:53:09;7.40;;;3.67;;
21804;SDS011;11064;47.102;15.452;2022-11-25T06:55:34;6.20;;;3.50;;
21804;SDS011;11064;47.102;15.452;2022-11-25T06:58:00;7.80;;;4.10;;
21804;SDS011;11064;47.102;15.452;2022-11-25T07:00:26;7.40;;;3.60;;
21804;SDS011;11064;47.102;15.452;2022-11-25T07:02:51;5.07;;;3.90;;
21804;SDS011;11064;47.102;15.452;2022-11-25T07:05:17;7.95;;;4.15;;
21804;SDS011;11064;47.102;15.452;2022-11-25T07:07:43;6.00;;;4.03;;
21804;SDS011;11064;47.102;15.452;2022-11-25T07:10:09;11.05;;;4.30;;
21804;SDS011;11064;47.102;15.452;2022-11-25T07:12:34;8.15;;;4.50;;
21804;SDS011;11064;47.102;15.452;2022-11-25T07:15:00;9.95;;;4.60;;
21804;SDS011;11064;47.102;15.452;2022-11-25T07:17:26;9.73;;;5.00;;
21804;SDS011;11064;47.102;15.452;2022-11-25T07:19:52;9.40;;;4.85;;
21804;SDS011;11064;47.102;15.452;2022-11-25T07:22:17;7.30;;;4.82;;
21804;SDS011;11064;47.102;15.452;2022-11-25T07:24:43;10.93;;;5.13;;
21804;SDS011;11064;47.102;15.452;2022-11-25T07:27:09;9.07;;;4.85;;
21804;SDS011;11064;47.102;15.452;2022-11-25T07:29:35;8.50;;;4.88;;
21804;SDS011;11064;47.102;15.452;2022-11-25T07:32:01;9.88;;;5.07;;
21804;SDS011;11064;47.102;15.452;2022-11-25T07:34:27;8.43;;;4.93;;
21804;SDS011;11064;47.102;15.452;2022-11-25T07:36:52;7.97;;;4.78;;
21804;SDS011;11064;47.102;15.452;2022-11-25T07:39:19;7.25;;;4.88;;
21804;SDS011;11064;47.102;15.452;2022-11-25T07:41:56;10.15;;;4.65;;
21804;SDS011;11064;47.102;15.452;2022-11-25T07:44:21;8.10;;;4.75;;
21804;SDS011;11064;47.102;15.452;2022-11-25T07:46:48;6.60;;;4.43;;
21804;SDS011;11064;47.102;15.452;2022-11-25T07:49:16;7.65;;;3.85;;
21804;SDS011;11064;47.102;15.452;2022-11-25T07:51:52;7.73;;;3.60;;
21804;SDS011;11064;47.102;15.452;2022-11-25T07:54:20;6.72;;;3.80;;
21804;SDS011;11064;47.102;15.452;2022-11-25T07:56:47;7.43;;;4.10;;
21804;SDS011;11064;47.102;15.452;2022-11-25T07:59:15;8.20;;;3.75;;
21804;SDS011;11064;47.102;15.452;2022-11-25T08:01:43;7.00;;;3.63;;
21804;SDS011;11064;47.102;15.452;2022-11-25T08:04:10;5.85;;;3.22;;
21804;SDS011;11064;47.102;15.452;2022-11-25T08:06:41;6.18;;;3.60;;
21804;SDS011;11064;47.102;15.452;2022-11-25T08:09:09;6.65;;;3.33;;
21804;SDS011;11064;47.102;15.452;2022-11-25T08:11:38;5.13;;;3.25;;
21804;SDS011;11064;47.102;15.452;2022-11-25T08:14:04;5.43;;;3.45;;
21804;SDS011;11064;47.102;15.452;2022-11-25T08:16:30;5.72;;;3.53;;
21804;SDS011;11064;47.102;15.452;2022-11-25T08:18:57;4.15;;;2.95;;
21804;SDS011;11064;47.102;15.452;2022-11-25T08:21:25;5.97;;;3.38;;
21804;SDS011;11064;47.102;15.452;2022-11-25T08:23:52;5.35;;;3.08;;
21804;SDS011;11064;47.102;15.452;2022-11-25T08:26:20;8.82;;;3.55;;
21804;SDS011;11064;47.102;15.452;2022-11-25T08:28:48;5.00;;;3.43;;
21804;SDS011;11064;47.102;15.452;2022-11-25T08:31:22;4.97;;;3.10;;
21804;SDS011;11064;47.102;15.452;2022-11-25T08:33:50;7.38;;;3.42;;
21804;SDS011;11064;47.102;15.452;2022-11-25T08:36:17;5.80;;;3.50;;
21804;SDS011;11064;47.102;15.452;2022-11-25T08:38:44;5.13;;;3.17;;
21804;SDS011;11064;47.102;15.452;2022-11-25T08:41:13;6.15;;;3.10;;
21804;SDS011;11064;47.102;15.452;2022-11-25T08:43:47;7.15;;;3.38;;
21804;SDS011;11064;47.102;15.452;2022-11-25T08:46:14;5.05;;;3.00;;
21804;SDS011;11064;47.102;15.452;2022-11-25T08:48:42;5.50;;;3.40;;
21804;SDS011;11064;47.102;15.452;2022-11-25T08:51:09;4.93;;;3.13;;
21804;SDS011;11064;47.102;15.452;2022-11-25T08:53:37;4.68;;;2.90;;
21804;SDS011;11064;47.102;15.452;2022-11-25T08:56:04;8.07;;;3.50;;
21804;SDS011;11064;47.102;15.452;2022-11-25T08:58:31;4.93;;;3.50;;
21804;SDS011;11064;47.102;15.452;2022-11-25T09:00:57;5.35;;;3.60;;
21804;SDS011;11064;47.102;15.452;2022-11-25T09:03:23;5.32;;;3.40;;
21804;SDS011;11064;47.102;15.452;2022-11-25T09:05:49;5.90;;;3.30;;
21804;SDS011;11064;47.102;15.452;2022-11-25T09:08:17;7.97;;;4.28;;
21804;SDS011;11064;47.102;15.452;2022-11-25T09:10:43;5.78;;;3.80;;
21804;SDS011;11064;47.102;15.452;2022-11-25T09:13:09;8.48;;;3.90;;
21804;SDS011;11064;47.102;15.452;2022-11-25T09:15:36;6.30;;;3.75;;
21804;SDS011;11064;47.102;15.452;2022-11-25T09:18:05;5.72;;;3.28;;
21804;SDS011;11064;47.102;15.452;2022-11-25T09:20:32;6.05;;;3.42;;
21804;SDS011;11064;47.102;15.452;2022-11-25T09:22:59;5.28;;;3.55;;
21804;SDS011;11064;47.102;15.452;2022-11-25T09:25:26;6.80;;;3.58;;
21804;SDS011;11064;47.102;15.452;2022-11-25T09:27:54;5.57;;;3.45;;
21804;SDS011;11064;47.102;15.452;2022-11-25T09:30:20;7.55;;;3.47;;
21804;SDS011;11064;47.102;15.452;2022-11-25T09:32:50;4.85;;;3.38;;
21804;SDS011;11064;47.102;15.452;2022-11-25T09:35:18;7.93;;;3.88;;
21804;SDS011;11064;47.102;15.452;2022-11-25T09:37:45;6.80;;;3.38;;
21804;SDS011;11064;47.102;15.452;2022-11-25T09:40:26;5.28;;;3.17;;
21804;SDS011;11064;47.102;15.452;2022-11-25T09:42:58;6.35;;;3.38;;
21804;SDS011;11064;47.102;15.452;2022-11-25T09:46:12;6.75;;;3.75;;
21804;SDS011;11064;47.102;15.452;2022-11-25T10:00:10;7.05;;;3.83;;
21804;SDS011;11064;47.102;15.452;2022-11-25T10:02:40;8.77;;;4.05;;
21804;SDS011;11064;47.102;15.452;2022-11-25T10:05:31;5.22;;;3.67;;
21804;SDS011;11064;47.102;15.452;2022-11-25T10:08:24;5.72;;;3.53;;
21804;SDS011;11064;47.102;15.452;2022-11-25T10:10:52;10.05;;;4.13;;
21804;SDS011;11064;47.102;15.452;2022-11-25T10:13:45;8.38;;;3.83;;
21804;SDS011;11064;47.102;15.452;2022-11-25T10:17:34;5.20;;;3.45;;
21804;SDS011;11064;47.102;15.452;2022-11-25T10:22:12;4.82;;;3.35;;
21804;SDS011;11064;47.102;15.452;2022-11-25T10:24:49;6.68;;;3.33;;
21804;SDS011;11064;47.102;15.452;2022-11-25T10:27:18;6.95;;;3.83;;
21804;SDS011;11064;47.102;15.452;2022-11-25T10:29:56;7.18;;;3.80;;
21804;SDS011;11064;47.102;15.452;2022-11-25T10:32:27;6.18;;;3.63;;
21804;SDS011;11064;47.102;15.452;2022-11-25T10:35:03;7.32;;;3.80;;
21804;SDS011;11064;47.102;15.452;2022-11-25T10:37:37;5.85;;;3.40;;
21804;SDS011;11064;47.102;15.452;2022-11-25T10:40:08;8.73;;;3.88;;
21804;SDS011;11064;47.102;15.452;2022-11-25T10:42:39;7.15;;;3.35;;
21804;SDS011;11064;47.102;15.452;2022-11-25T10:45:05;6.72;;;3.25;;
21804;SDS011;11064;47.102;15.452;2022-11-25T10:50:31;4.95;;;3.28;;
21804;SDS011;11064;47.102;15.452;2022-11-25T10:53:15;4.82;;;3.20;;
21804;SDS011;11064;47.102;15.452;2022-11-25T10:56:00;5.93;;;3.40;;
21804;SDS011;11064;47.102;15.452;2022-11-25T10:58:37;6.65;;;3.38;;
21804;SDS011;11064;47.102;15.452;2022-11-25T11:03:36;6.80;;;3.30;;
21804;SDS011;11064;47.102;15.452;2022-11-25T11:06:03;6.95;;;3.50;;
21804;SDS011;11064;47.102;15.452;2022-11-25T11:08:38;6.85;;;3.65;;
21804;SDS011;11064;47.102;15.452;2022-11-25T11:13:45;7.78;;;3.47;;
21804;SDS011;11064;47.102;15.452;2022-11-25T11:16:54;9.00;;;3.05;;
21804;SDS011;11064;47.102;15.452;2022-11-25T11:19:02;6.30;;;3.22;;
21804;SDS011;11064;47.102;15.452;2022-11-25T11:21:30;7.38;;;3.80;;
21804;SDS011;11064;47.102;15.452;2022-11-25T11:23:57;7.97;;;3.80;;
21804;SDS011;11064;47.102;15.452;2022-11-25T11:29:13;11.63;;;4.45;;
21804;SDS011;11064;47.102;15.452;2022-11-25T11:31:44;8.70;;;4.82;;
21804;SDS011;11064;47.102;15.452;2022-11-25T11:34:24;6.60;;;4.35;;
21804;SDS011;11064;47.102;15.452;2022-11-25T11:39:57;9.10;;;5.22;;
21804;SDS011;11064;47.102;15.452;2022-11-25T11:56:33;13.85;;;6.63;;
21804;SDS011;11064;47.102;15.452;2022-11-25T12:07:50;11.38;;;5.53;;
21804;SDS011;11064;47.102;15.452;2022-11-25T12:15:56;7.95;;;4.47;;
21804;SDS011;11064;47.102;15.452;2022-11-25T12:26:40;9.35;;;3.88;;
21804;SDS011;11064;47.102;15.452;2022-11-25T12:32:03;7.95;;;3.92;;
21804;SDS011;11064;47.102;15.452;2022-11-25T12:34:39;6.60;;;3.70;;
21804;SDS011;11064;47.102;15.452;2022-11-25T12:37:12;6.38;;;3.63;;
21804;SDS011;11064;47.102;15.452;2022-11-25T12:39:52;7.10;;;3.80;;
21804;SDS011;11064;47.102;15.452;2022-11-25T12:42:24;6.57;;;3.20;;
21804;SDS011;11064;47.102;15.452;2022-11-25T12:47:26;5.50;;;3.25;;
21804;SDS011;11064;47.102;15.452;2022-11-25T12:49:52;6.10;;;3.33;;
21804;SDS011;11064;47.102;15.452;2022-11-25T12:52:26;4.80;;;3.05;;
21804;SDS011;11064;47.102;15.452;2022-11-25T13:00:18;7.13;;;3.28;;
21804;SDS011;11064;47.102;15.452;2022-11-25T13:08:18;4.75;;;3.30;;
21804;SDS011;11064;47.102;15.452;2022-11-25T13:16:49;5.97;;;2.88;;
21804;SDS011;11064;47.102;15.452;2022-11-25T13:19:18;4.28;;;2.80;;
21804;SDS011;11064;47.102;15.452;2022-11-25T13:24:37;10.45;;;3.20;;
21804;SDS011;11064;47.102;15.452;2022-11-25T13:27:04;5.32;;;3.00;;
21804;SDS011;11064;47.102;15.452;2022-11-25T13:29:51;7.97;;;2.42;;
21804;SDS011;11064;47.102;15.452;2022-11-25T13:32:23;4.05;;;2.30;;
21804;SDS011;11064;47.102;15.452;2022-11-25T13:37:46;4.65;;;2.60;;
21804;SDS011;11064;47.102;15.452;2022-11-25T13:40:19;3.78;;;2.58;;
21804;SDS011;11064;47.102;15.452;2022-11-25T13:42:46;4.88;;;2.50;;
21804;SDS011;11064;47.102;15.452;2022-11-25T13:48:03;5.55;;;2.08;;
21804;SDS011;11064;47.102;15.452;2022-11-25T13:50:39;5.00;;;2.20;;
21804;SDS011;11064;47.102;15.452;2022-11-25T13:53:17;6.32;;;2.20;;
21804;SDS011;11064;47.102;15.452;2022-11-25T13:55:46;5.85;;;2.40;;
21804;SDS011;11064;47.102;15.452;2022-11-25T13:58:24;18.13;;;2.63;;
21804;SDS011;11064;47.102;15.452;2022-11-25T14:08:31;6.88;;;2.45;;
21804;SDS011;11064;47.102;15.452;2022-11-25T14:22:31;4.82;;;2.45;;
21804;SDS011;11064;47.102;15.452;2022-11-25T14:25:24;5.15;;;2.90;;
21804;SDS011;11064;47.102;15.452;2022-11-25T14:28:19;5.20;;;2.53;;
21804;SDS011;11064;47.102;15.452;2022-11-25T14:30:53;5.30;;;3.30;;
21804;SDS011;11064;47.102;15.452;2022-11-25T14:33:28;5.70;;;2.72;;
21804;SDS011;11064;47.102;15.452;2022-11-25T14:36:11;6.53;;;2.97;;
21804;SDS011;11064;47.102;15.452;2022-11-25T14:38:42;7.88;;;2.95;;
21804;SDS011;11064;47.102;15.452;2022-11-25T14:44:00;8.10;;;2.85;;
21804;SDS011;11064;47.102;15.452;2022-11-25T14:46:31;6.78;;;2.70;;
21804;SDS011;11064;47.102;15.452;2022-11-25T14:48:58;8.70;;;2.97;;
21804;SDS011;11064;47.102;15.452;2022-11-25T14:51:35;5.15;;;2.40;;
21804;SDS011;11064;47.102;15.452;2022-11-25T14:54:06;6.28;;;2.53;;
21804;SDS011;11064;47.102;15.452;2022-11-25T14:56:33;4.53;;;2.53;;
21804;SDS011;11064;47.102;15.452;2022-11-25T14:59:01;4.47;;;2.45;;
21804;SDS011;11064;47.102;15.452;2022-11-25T15:01:30;3.83;;;2.58;;
21804;SDS011;11064;47.102;15.452;2022-11-25T15:06:41;3.80;;;2.80;;
21804;SDS011;11064;47.102;15.452;2022-11-25T15:09:20;6.68;;;3.00;;
21804;SDS011;11064;47.102;15.452;2022-11-25T15:11:54;5.25;;;2.78;;
21804;SDS011;11064;47.102;15.452;2022-11-25T15:14:33;7.38;;;3.00;;
21804;SDS011;11064;47.102;15.452;2022-11-25T15:17:08;8.40;;;3.05;;
21804;SDS011;11064;47.102;15.452;2022-11-25T15:20:03;6.78;;;3.50;;
21804;SDS011;11064;47.102;15.452;2022-11-25T15:22:36;6.30;;;4.10;;
21804;SDS011;11064;47.102;15.452;2022-11-25T15:25:06;6.38;;;4.57;;
21804;SDS011;11064;47.102;15.452;2022-11-25T15:27:42;8.55;;;4.65;;
21804;SDS011;11064;47.102;15.452;2022-11-25T15:30:22;9.70;;;3.67;;
21804;SDS011;11064;47.102;15.452;2022-11-25T15:32:51;8.18;;;3.58;;
21804;SDS011;11064;47.102;15.452;2022-11-25T15:35:19;7.93;;;3.33;;
21804;SDS011;11064;47.102;15.452;2022-11-25T15:37:50;7.55;;;3.63;;
21804;SDS011;11064;47.102;15.452;2022-11-25T15:40:34;7.93;;;3.47;;
21804;SDS011;11064;47.102;15.452;2022-11-25T15:43:06;9.55;;;3.40;;
21804;SDS011;11064;47.102;15.452;2022-11-25T15:45:49;6.88;;;3.40;;
21804;SDS011;11064;47.102;15.452;2022-11-25T15:48:21;6.85;;;3.33;;
21804;SDS011;11064;47.102;15.452;2022-11-25T15:51:08;7.85;;;3.83;;
21804;SDS011;11064;47.102;15.452;2022-11-25T15:53:45;6.07;;;3.60;;
21804;SDS011;11064;47.102;15.452;2022-11-25T15:56:20;6.22;;;3.65;;
21804;SDS011;11064;47.102;15.452;2022-11-25T15:58:49;5.82;;;3.55;;
21804;SDS011;11064;47.102;15.452;2022-11-25T16:03:41;6.28;;;3.60;;
21804;SDS011;11064;47.102;15.452;2022-11-25T16:08:54;8.07;;;3.53;;
21804;SDS011;11064;47.102;15.452;2022-11-25T16:11:28;8.50;;;3.67;;
21804;SDS011;11064;47.102;15.452;2022-11-25T16:14:22;7.40;;;3.88;;
21804;SDS011;11064;47.102;15.452;2022-11-25T16:17:00;7.57;;;4.40;;
21804;SDS011;11064;47.102;15.452;2022-11-25T16:19:29;8.35;;;4.30;;
21804;SDS011;11064;47.102;15.452;2022-11-25T16:21:59;10.05;;;4.03;;
21804;SDS011;11064;47.102;15.452;2022-11-25T16:29:31;8.43;;;4.18;;
21804;SDS011;11064;47.102;15.452;2022-11-25T16:32:09;9.40;;;4.15;;
21804;SDS011;11064;47.102;15.452;2022-11-25T16:34:41;8.07;;;3.92;;
21804;SDS011;11064;47.102;15.452;2022-11-25T16:37:07;12.43;;;4.90;;
21804;SDS011;11064;47.102;15.452;2022-11-25T16:39:33;8.35;;;4.82;;
21804;SDS011;11064;47.102;15.452;2022-11-25T16:42:00;7.50;;;4.63;;
21804;SDS011;11064;47.102;15.452;2022-11-25T16:44:29;9.48;;;4.32;;
21804;SDS011;11064;47.102;15.452;2022-11-25T16:46:57;7.05;;;4.32;;
21804;SDS011;11064;47.102;15.452;2022-11-25T16:49:23;8.95;;;4.68;;
21804;SDS011;11064;47.102;15.452;2022-11-25T16:51:51;7.75;;;4.93;;
21804;SDS011;11064;47.102;15.452;2022-11-25T16:54:20;8.32;;;5.40;;
21804;SDS011;11064;47.102;15.452;2022-11-25T16:56:53;8.10;;;4.15;;
21804;SDS011;11064;47.102;15.452;2022-11-25T16:59:29;10.40;;;3.72;;
21804;SDS011;11064;47.102;15.452;2022-11-25T17:01:58;7.25;;;3.38;;
21804;SDS011;11064;47.102;15.452;2022-11-25T17:04:25;6.28;;;3.60;;
21804;SDS011;11064;47.102;15.452;2022-11-25T17:06:51;7.88;;;3.30;;
21804;SDS011;11064;47.102;15.452;2022-11-25T17:09:19;7.22;;;3.67;;
21804;SDS011;11064;47.102;15.452;2022-11-25T17:11:46;6.82;;;3.72;;
21804;SDS011;11064;47.102;15.452;2022-11-25T17:14:28;6.25;;;3.50;;
21804;SDS011;11064;47.102;15.452;2022-11-25T17:16:57;6.32;;;3.58;;
21804;SDS011;11064;47.102;15.452;2022-11-25T17:19:24;9.20;;;3.83;;
21804;SDS011;11064;47.102;15.452;2022-11-25T17:21:50;8.63;;;3.90;;
21804;SDS011;11064;47.102;15.452;2022-11-25T17:24:19;6.07;;;3.58;;
21804;SDS011;11064;47.102;15.452;2022-11-25T17:26:54;5.93;;;3.50;;
21804;SDS011;11064;47.102;15.452;2022-11-25T17:29:31;5.57;;;3.00;;
21804;SDS011;11064;47.102;15.452;2022-11-25T17:32:05;4.88;;;2.92;;
21804;SDS011;11064;47.102;15.452;2022-11-25T17:34:31;4.28;;;3.50;;
21804;SDS011;11064;47.102;15.452;2022-11-25T17:36:57;5.43;;;3.30;;
21804;SDS011;11064;47.102;15.452;2022-11-25T17:39:22;5.88;;;3.30;;
21804;SDS011;11064;47.102;15.452;2022-11-25T17:41:49;6.40;;;3.33;;
21804;SDS011;11064;47.102;15.452;2022-11-25T17:44:25;7.13;;;3.10;;
21804;SDS011;11064;47.102;15.452;2022-11-25T17:46:53;8.65;;;3.47;;
21804;SDS011;11064;47.102;15.452;2022-11-25T17:49:19;6.28;;;3.40;;
21804;SDS011;11064;47.102;15.452;2022-11-25T17:51:46;9.45;;;3.17;;
21804;SDS011;11064;47.102;15.452;2022-11-25T17:54:12;9.90;;;3.47;;
21804;SDS011;11064;47.102;15.452;2022-11-25T17:56:42;7.32;;;3.72;;
21804;SDS011;11064;47.102;15.452;2022-11-25T17:59:13;7.82;;;3.45;;
21804;SDS011;11064;47.102;15.452;2022-11-25T18:01:44;6.30;;;3.40;;
21804;SDS011;11064;47.102;15.452;2022-11-25T18:04:31;6.93;;;4.00;;
21804;SDS011;11064;47.102;15.452;2022-11-25T18:07:00;8.27;;;3.40;;
21804;SDS011;11064;47.102;15.452;2022-11-25T18:09:26;9.23;;;4.07;;
21804;SDS011;11064;47.102;15.452;2022-11-25T18:11:53;6.90;;;3.67;;
21804;SDS011;11064;47.102;15.452;2022-11-25T18:14:26;9.45;;;4.35;;
21804;SDS011;11064;47.102;15.452;2022-11-25T18:16:57;7.13;;;4.30;;
21804;SDS011;11064;47.102;15.452;2022-11-25T18:19:29;6.78;;;4.50;;
21804;SDS011;11064;47.102;15.452;2022-11-25T18:22:14;8.88;;;4.72;;
21804;SDS011;11064;47.102;15.452;2022-11-25T18:24:41;7.47;;;4.40;;
21804;SDS011;11064;47.102;15.452;2022-11-25T18:27:21;7.95;;;4.15;;
21804;SDS011;11064;47.102;15.452;2022-11-25T18:29:51;6.53;;;4.20;;
21804;SDS011;11064;47.102;15.452;2022-11-25T18:32:18;8.10;;;4.45;;
21804;SDS011;11064;47.102;15.452;2022-11-25T18:34:45;5.97;;;4.20;;
21804;SDS011;11064;47.102;15.452;2022-11-25T18:37:12;10.85;;;4.80;;
21804;SDS011;11064;47.102;15.452;2022-11-25T18:39:38;10.52;;;4.30;;
21804;SDS011;11064;47.102;15.452;2022-11-25T18:42:05;8.10;;;4.60;;
21804;SDS011;11064;47.102;15.452;2022-11-25T18:44:33;7.13;;;4.70;;
21804;SDS011;11064;47.102;15.452;2022-11-25T18:47:09;9.55;;;4.72;;
21804;SDS011;11064;47.102;15.452;2022-11-25T18:49:36;7.30;;;4.28;;
21804;SDS011;11064;47.102;15.452;2022-11-25T18:52:02;10.05;;;4.80;;
21804;SDS011;11064;47.102;15.452;2022-11-25T18:54:28;9.25;;;5.13;;
21804;SDS011;11064;47.102;15.452;2022-11-25T18:56:56;9.57;;;5.07;;
21804;SDS011;11064;47.102;15.452;2022-11-25T18:59:26;8.85;;;4.60;;
21804;SDS011;11064;47.102;15.452;2022-11-25T19:01:58;8.05;;;4.95;;
21804;SDS011;11064;47.102;15.452;2022-11-25T19:04:25;6.93;;;4.47;;
21804;SDS011;11064;47.102;15.452;2022-11-25T19:06:52;8.98;;;4.53;;
21804;SDS011;11064;47.102;15.452;2022-11-25T19:09:18;8.93;;;4.70;;
21804;SDS011;11064;47.102;15.452;2022-11-25T19:11:46;6.72;;;4.15;;
21804;SDS011;11064;47.102;15.452;2022-11-25T19:17:02;8.48;;;4.55;;
21804;SDS011;11064;47.102;15.452;2022-11-25T19:19:32;8.40;;;5.20;;
21804;SDS011;11064;47.102;15.452;2022-11-25T19:21:59;9.07;;;4.70;;
21804;SDS011;11064;47.102;15.452;2022-11-25T19:24:26;10.18;;;4.70;;
21804;SDS011;11064;47.102;15.452;2022-11-25T19:26:53;8.35;;;4.47;;
21804;SDS011;11064;47.102;15.452;2022-11-25T19:29:30;8.80;;;4.83;;
21804;SDS011;11064;47.102;15.452;2022-11-25T19:32:00;8.15;;;4.47;;
21804;SDS011;11064;47.102;15.452;2022-11-25T19:34:29;10.52;;;5.20;;
21804;SDS011;11064;47.102;15.452;2022-11-25T19:36:59;9.65;;;5.32;;
21804;SDS011;11064;47.102;15.452;2022-11-25T19:39:26;7.78;;;4.43;;
21804;SDS011;11064;47.102;15.452;2022-11-25T19:41:53;7.97;;;4.50;;
21804;SDS011;11064;47.102;15.452;2022-11-25T19:44:19;8.70;;;5.20;;
21804;SDS011;11064;47.102;15.452;2022-11-25T19:46:46;14.63;;;5.35;;
21804;SDS011;11064;47.102;15.452;2022-11-25T19:49:17;9.05;;;5.22;;
21804;SDS011;11064;47.102;15.452;2022-11-25T19:51:44;9.75;;;5.70;;
21804;SDS011;11064;47.102;15.452;2022-11-25T19:54:11;10.00;;;5.40;;
21804;SDS011;11064;47.102;15.452;2022-11-25T19:56:39;9.20;;;5.28;;
21804;SDS011;11064;47.102;15.452;2022-11-25T19:59:06;8.40;;;4.80;;
21804;SDS011;11064;47.102;15.452;2022-11-25T20:01:34;10.27;;;5.10;;
21804;SDS011;11064;47.102;15.452;2022-11-25T20:04:12;9.88;;;5.43;;
21804;SDS011;11064;47.102;15.452;2022-11-25T20:06:43;8.90;;;4.90;;
21804;SDS011;11064;47.102;15.452;2022-11-25T20:09:10;7.82;;;5.13;;
21804;SDS011;11064;47.102;15.452;2022-11-25T20:11:38;6.82;;;4.63;;
21804;SDS011;11064;47.102;15.452;2022-11-25T20:14:04;9.10;;;5.45;;
21804;SDS011;11064;47.102;15.452;2022-11-25T20:16:34;7.97;;;4.75;;
21804;SDS011;11064;47.102;15.452;2022-11-25T20:19:03;7.55;;;5.00;;
21804;SDS011;11064;47.102;15.452;2022-11-25T20:21:38;8.73;;;5.30;;
21804;SDS011;11064;47.102;15.452;2022-11-25T20:24:10;9.43;;;5.30;;
21804;SDS011;11064;47.102;15.452;2022-11-25T20:26:41;10.63;;;5.65;;
21804;SDS011;11064;47.102;15.452;2022-11-25T20:29:13;9.45;;;5.53;;
21804;SDS011;11064;47.102;15.452;2022-11-25T20:31:41;10.65;;;5.82;;
21804;SDS011;11064;47.102;15.452;2022-11-25T20:34:07;8.48;;;5.10;;
21804;SDS011;11064;47.102;15.452;2022-11-25T20:36:33;8.77;;;5.18;;
21804;SDS011;11064;47.102;15.452;2022-11-25T20:39:00;10.27;;;5.10;;
21804;SDS011;11064;47.102;15.452;2022-11-25T20:41:28;11.23;;;5.18;;
21804;SDS011;11064;47.102;15.452;2022-11-25T20:43:55;10.48;;;5.75;;
21804;SDS011;11064;47.102;15.452;2022-11-25T20:46:23;11.05;;;5.57;;
21804;SDS011;11064;47.102;15.452;2022-11-25T20:48:54;10.15;;;5.30;;
21804;SDS011;11064;47.102;15.452;2022-11-25T20:51:22;11.52;;;5.65;;
21804;SDS011;11064;47.102;15.452;2022-11-25T20:53:50;13.63;;;7.13;;
21804;SDS011;11064;47.102;15.452;2022-11-25T20:56:20;16.70;;;7.45;;
21804;SDS011;11064;47.102;15.452;2022-11-25T20:58:47;26.42;;;10.98;;
21804;SDS011;11064;47.102;15.452;2022-11-25T21:01:14;19.25;;;9.60;;
21804;SDS011;11064;47.102;15.452;2022-11-25T21:03:44;12.40;;;6.40;;
21804;SDS011;11064;47.102;15.452;2022-11-25T21:06:25;9.98;;;5.95;;
21804;SDS011;11064;47.102;15.452;2022-11-25T21:11:20;11.43;;;5.97;;
21804;SDS011;11064;47.102;15.452;2022-11-25T21:13:47;11.75;;;6.22;;
21804;SDS011;11064;47.102;15.452;2022-11-25T21:16:16;11.27;;;6.15;;
21804;SDS011;11064;47.102;15.452;2022-11-25T21:18:42;10.32;;;6.07;;
21804;SDS011;11064;47.102;15.452;2022-11-25T21:21:15;14.25;;;5.93;;
21804;SDS011;11064;47.102;15.452;2022-11-25T21:23:54;9.77;;;5.93;;
21804;SDS011;11064;47.102;15.452;2022-11-25T21:26:21;9.70;;;5.65;;
21804;SDS011;11064;47.102;15.452;2022-11-25T21:28:50;11.30;;;5.93;;
21804;SDS011;11064;47.102;15.452;2022-11-25T21:31:18;10.25;;;5.40;;
21804;SDS011;11064;47.102;15.452;2022-11-25T21:33:48;9.70;;;5.25;;
21804;SDS011;11064;47.102;15.452;2022-11-25T21:36:19;9.57;;;5.20;;
21804;SDS011;11064;47.102;15.452;2022-11-25T21:38:47;8.95;;;4.88;;
21804;SDS011;11064;47.102;15.452;2022-11-25T21:41:15;8.35;;;5.10;;
21804;SDS011;11064;47.102;15.452;2022-11-25T21:43:43;10.50;;;5.10;;
21804;SDS011;11064;47.102;15.452;2022-11-25T21:46:15;11.70;;;5.53;;
21804;SDS011;11064;47.102;15.452;2022-11-25T21:48:43;12.05;;;6.15;;
21804;SDS011;11064;47.102;15.452;2022-11-25T21:51:10;9.75;;;5.65;;
21804;SDS011;11064;47.102;15.452;2022-11-25T21:53:37;10.75;;;6.13;;
21804;SDS011;11064;47.102;15.452;2022-11-25T21:56:05;9.48;;;5.65;;
21804;SDS011;11064;47.102;15.452;2022-11-25T21:58:41;9.38;;;5.55;;
21804;SDS011;11064;47.102;15.452;2022-11-25T22:01:07;11.18;;;5.70;;
21804;SDS011;11064;47.102;15.452;2022-11-25T22:03:35;12.30;;;6.25;;
21804;SDS011;11064;47.102;15.452;2022-11-25T22:06:01;10.18;;;6.13;;
21804;SDS011;11064;47.102;15.452;2022-11-25T22:08:27;10.30;;;6.28;;
21804;SDS011;11064;47.102;15.452;2022-11-25T22:10:53;11.20;;;6.53;;